Time;durP1;ratioP1;P1;durP2;ratioP2;P2;SDS_P1;SDS_P2;PMS_P1;PMS_P2;Temp;Humidity;BMP_temperature;BMP_pressure;BME280_temperature;BME280_humidity;BME280_pressure;Samples;Min_cycle;Max_cycle;Signal;HPM_P1;HPM_P2
2023/05/07 00:00:51;;;;;;;12.85;6.38;;;;;;;;;;10604657;27;20043;-81
2023/05/07 00:05:53;;;;;;;13.25;6.45;;;;;;;;;;10601639;27;20055;-80
2023/05/07 00:10:57;;;;;;;12.23;5.88;;;;;;;;;;10595070;27;20039;-81
2023/05/07 00:16:00;;;;;;;;;;;;;;;;;;10602873;27;20055;-81
2023/05/07 00:21:02;;;;;;;15.50;7.22;;;;;;;;;;10603700;27;20398;-80
2023/05/07 00:26:06;;;;;;;11.23;5.50;;;;;;;;;;10603200;27;20039;-81
2023/05/07 00:31:10;;;;;;;10.20;5.38;;;;;;;;;;10604067;27;20043;-81
2023/05/07 00:36:12;;;;;;;11.50;5.57;;;;;;;;;;10606668;27;20513;-81
2023/05/07 00:41:16;;;;;;;14.75;6.25;;;;;;;;;;10606702;27;20043;-82
2023/05/07 00:46:18;;;;;;;;;;;;;;;;;;10590258;27;20039;-79
2023/05/07 00:51:21;;;;;;;14.57;6.07;;;;;;;;;;10606962;27;19919;-80
2023/05/07 00:56:25;;;;;;;9.70;5.28;;;;;;;;;;10604212;27;20111;-81
2023/05/07 01:01:28;;;;;;;15.32;6.93;;;;;;;;;;10610294;27;20037;-80
2023/05/07 01:06:32;;;;;;;14.13;6.55;;;;;;;;;;10608054;27;20049;-81
2023/05/07 01:11:37;;;;;;;10.43;5.47;;;;;;;;;;10600326;27;20047;-81
2023/05/07 01:16:41;;;;;;;11.77;5.75;;;;;;;;;;10609144;27;20030;-81
2023/05/07 01:21:45;;;;;;;10.35;5.32;;;;;;;;;;10606164;27;20039;-81
2023/05/07 01:26:49;;;;;;;13.15;5.95;;;;;;;;;;10596513;27;20035;-80
2023/05/07 01:31:53;;;;;;;8.75;5.32;;;;;;;;;;10604553;27;20504;-81
2023/05/07 01:36:57;;;;;;;9.15;5.32;;;;;;;;;;10598571;27;20071;-81
2023/05/07 01:42:02;;;;;;;10.52;5.65;;;;;;;;;;10598502;27;20139;-80
2023/05/07 01:47:04;;;;;;;14.18;5.90;;;;;;;;;;10605321;27;20054;-81
2023/05/07 01:52:07;;;;;;;11.02;5.47;;;;;;;;;;10608286;27;20031;-80
2023/05/07 01:57:12;;;;;;;14.07;5.78;;;;;;;;;;10600875;27;20130;-80
2023/05/07 02:02:15;;;;;;;11.80;5.43;;;;;;;;;;10604347;27;20130;-81
2023/05/07 02:07:17;;;;;;;11.90;6.03;;;;;;;;;;10585353;27;20040;-81
2023/05/07 02:12:21;;;;;;;10.68;5.35;;;;;;;;;;10603234;27;20178;-80
2023/05/07 02:17:24;;;;;;;;;;;;;;;;;;10590979;27;20088;-81
2023/05/07 02:22:26;;;;;;;7.50;4.53;;;;;;;;;;10610178;27;19919;-81
2023/05/07 02:27:30;;;;;;;8.65;4.95;;;;;;;;;;10602918;27;20066;-81
2023/05/07 02:32:33;;;;;;;12.18;5.57;;;;;;;;;;10593846;27;20174;-81
2023/05/07 02:37:36;;;;;;;10.27;5.15;;;;;;;;;;10604307;27;20494;-82
2023/05/07 02:42:39;;;;;;;7.95;4.85;;;;;;;;;;10609054;27;20126;-81
2023/05/07 02:47:42;;;;;;;8.73;4.88;;;;;;;;;;10602101;27;20217;-81
2023/05/07 02:52:45;;;;;;;9.82;4.70;;;;;;;;;;10605052;27;20487;-81
2023/05/07 02:57:49;;;;;;;11.15;5.07;;;;;;;;;;10599888;27;20163;-82
2023/05/07 03:02:52;;;;;;;12.00;5.18;;;;;;;;;;10607260;27;20416;-81
2023/05/07 03:07:55;;;;;;;8.77;4.70;;;;;;;;;;10599573;27;20323;-82
2023/05/07 03:12:59;;;;;;;9.52;5.07;;;;;;;;;;10600770;27;20039;-82
2023/05/07 03:18:01;;;;;;;10.40;5.28;;;;;;;;;;10600695;27;20081;-81
2023/05/07 03:23:04;;;;;;;10.38;4.88;;;;;;;;;;10597198;27;20122;-81
2023/05/07 03:28:08;;;;;;;9.55;5.15;;;;;;;;;;10599950;27;20035;-81
2023/05/07 03:33:11;;;;;;;;;;;;;;;;;;10601765;27;20513;-80
2023/05/07 03:38:13;;;;;;;8.40;4.68;;;;;;;;;;10593258;27;20336;-80
2023/05/07 03:43:17;;;;;;;10.05;4.65;;;;;;;;;;10612739;27;20096;-82
2023/05/07 03:48:20;;;;;;;10.13;5.30;;;;;;;;;;10601777;27;20046;-81
2023/05/07 03:53:23;;;;;;;9.98;5.40;;;;;;;;;;10608007;27;20372;-81
2023/05/07 03:58:27;;;;;;;11.90;5.50;;;;;;;;;;10611762;27;20047;-80
2023/05/07 04:03:29;;;;;;;;;;;;;;;;;;10610009;27;20035;-79
2023/05/07 04:08:32;;;;;;;8.50;4.30;;;;;;;;;;10603475;27;19962;-80
2023/05/07 04:13:36;;;;;;;8.27;4.82;;;;;;;;;;10602191;27;20039;-81
2023/05/07 04:18:38;;;;;;;;;;;;;;;;;;10606566;27;20040;-81
2023/05/07 04:23:41;;;;;;;9.63;4.32;;;;;;;;;;10605030;27;19923;-80
2023/05/07 04:28:45;;;;;;;9.23;4.80;;;;;;;;;;10605404;27;20043;-80
2023/05/07 04:33:47;;;;;;;;;;;;;;;;;;10587483;27;20027;-80
2023/05/07 04:38:50;;;;;;;10.63;4.88;;;;;;;;;;10607978;27;20010;-80
2023/05/07 04:43:54;;;;;;;9.60;5.03;;;;;;;;;;10600776;27;20039;-79
2023/05/07 04:48:56;;;;;;;;;;;;;;;;;;10595454;27;20031;-80
2023/05/07 04:53:59;;;;;;;9.50;4.53;;;;;;;;;;10597249;27;19923;-80
2023/05/07 04:59:06;;;;;;;10.25;4.78;;;;;;;;;;10605853;27;20031;-81
2023/05/07 05:04:10;;;;;;;8.23;4.75;;;;;;;;;;10609561;27;20483;-81
2023/05/07 05:09:12;;;;;;;;;;;;;;;;;;10599088;27;20035;-79
2023/05/07 05:14:16;;;;;;;8.13;5.00;;;;;;;;;;10616994;27;19927;-79
2023/05/07 05:19:19;;;;;;;;;;;;;;;;;;10604655;27;20050;-80
2023/05/07 05:24:21;;;;;;;6.78;3.88;;;;;;;;;;10607291;27;19953;-81
2023/05/07 05:29:25;;;;;;;7.07;3.72;;;;;;;;;;10581264;27;20475;-82
2023/05/07 05:34:28;;;;;;;6.70;3.45;;;;;;;;;;10603313;27;20092;-83
2023/05/07 05:39:31;;;;;;;6.30;3.67;;;;;;;;;;10599758;27;20043;-81
2023/05/07 05:44:36;;;;;;;5.60;3.67;;;;;;;;;;10601801;27;20066;-82
2023/05/07 05:49:39;;;;;;;7.10;3.63;;;;;;;;;;10595583;27;20043;-81
2023/05/07 05:54:41;;;;;;;8.18;4.10;;;;;;;;;;10599698;27;20108;-82
2023/05/07 05:59:47;;;;;;;5.68;3.40;;;;;;;;;;10599073;27;20055;-82
2023/05/07 06:04:49;;;;;;;6.70;3.30;;;;;;;;;;10610768;27;20038;-82
2023/05/07 06:09:52;;;;;;;7.27;3.57;;;;;;;;;;10592972;27;20074;-82
2023/05/07 06:14:56;;;;;;;6.43;3.65;;;;;;;;;;10601710;27;20404;-79
2023/05/07 06:19:59;;;;;;;8.55;4.03;;;;;;;;;;10600751;27;20517;-81
2023/05/07 06:25:02;;;;;;;8.00;3.40;;;;;;;;;;10602939;27;20518;-81
2023/05/07 06:30:09;;;;;;;5.30;3.22;;;;;;;;;;10611224;27;20312;-81
2023/05/07 06:35:12;;;;;;;6.10;3.42;;;;;;;;;;10597934;27;20071;-80
2023/05/07 06:40:15;;;;;;;5.40;3.00;;;;;;;;;;10594574;27;20047;-80
2023/05/07 06:45:20;;;;;;;5.32;2.92;;;;;;;;;;10593018;27;20216;-80
2023/05/07 06:50:22;;;;;;;5.80;1.60;;;;;;;;;;10599543;27;20043;-81
2023/05/07 06:55:25;;;;;;;5.13;2.37;;;;;;;;;;10611208;27;20095;-79
2023/05/07 07:00:30;;;;;;;4.35;2.63;;;;;;;;;;10602891;27;20769;-79
2023/05/07 07:05:33;;;;;;;5.85;2.95;;;;;;;;;;10601831;27;20142;-80
2023/05/07 07:10:36;;;;;;;3.25;2.25;;;;;;;;;;10593073;27;20473;-85
2023/05/07 07:15:41;;;;;;;5.55;3.15;;;;;;;;;;10604271;27;20042;-81
2023/05/07 07:20:45;;;;;;;5.47;3.03;;;;;;;;;;10600995;27;20035;-82
2023/05/07 07:25:48;;;;;;;7.57;3.00;;;;;;;;;;10608346;27;20036;-81
2023/05/07 07:30:51;;;;;;;;;;;;;;;;;;10610097;27;20521;-81
2023/05/07 07:35:56;;;;;;;4.32;2.88;;;;;;;;;;10610523;27;19927;-79
2023/05/07 07:40:58;;;;;;;4.15;2.92;;;;;;;;;;10606466;27;20051;-84
2023/05/07 07:46:01;;;;;;;3.78;2.90;;;;;;;;;;10610732;27;20039;-82
2023/05/07 07:51:05;;;;;;;5.28;3.78;;;;;;;;;;10606640;27;20039;-83
2023/05/07 07:56:08;;;;;;;3.92;2.95;;;;;;;;;;10609962;27;20035;-83
2023/05/07 08:01:12;;;;;;;4.88;3.00;;;;;;;;;;10613362;27;20051;-84
2023/05/07 08:06:16;;;;;;;5.63;2.85;;;;;;;;;;10610058;27;20062;-82
2023/05/07 08:11:19;;;;;;;5.70;2.97;;;;;;;;;;10606405;27;20121;-80
2023/05/07 08:16:22;;;;;;;5.57;3.28;;;;;;;;;;10606896;27;20042;-80
2023/05/07 08:21:27;;;;;;;6.68;3.30;;;;;;;;;;10611042;27;20139;-81
2023/05/07 08:26:29;;;;;;;3.15;2.72;;;;;;;;;;10609395;27;20028;-81
2023/05/07 08:31:32;;;;;;;3.38;2.53;;;;;;;;;;10611942;27;20051;-81
2023/05/07 08:36:36;;;;;;;7.97;3.33;;;;;;;;;;10607874;27;20039;-80
2023/05/07 08:41:39;;;;;;;3.70;3.08;;;;;;;;;;10609579;27;20408;-81
2023/05/07 08:46:43;;;;;;;3.90;2.90;;;;;;;;;;10608666;27;20386;-81
2023/05/07 08:51:47;;;;;;;6.70;3.25;;;;;;;;;;10610138;27;20203;-82
2023/05/07 08:56:50;;;;;;;5.10;3.15;;;;;;;;;;10608327;27;20116;-82
2023/05/07 09:01:53;;;;;;;4.45;3.30;;;;;;;;;;10610417;27;20465;-82
2023/05/07 09:07:03;;;;;;;3.72;3.03;;;;;;;;;;10604269;27;20035;-83
2023/05/07 09:12:06;;;;;;;4.60;3.42;;;;;;;;;;10604855;27;20108;-82
2023/05/07 09:17:09;;;;;;;4.82;3.60;;;;;;;;;;10604652;27;20501;-82
2023/05/07 09:22:13;;;;;;;6.30;3.67;;;;;;;;;;10601147;27;20079;-82
2023/05/07 09:27:15;;;;;;;3.67;3.38;;;;;;;;;;10603025;27;20618;-82
2023/05/07 09:32:18;;;;;;;6.05;3.42;;;;;;;;;;10599378;27;20494;-81
2023/05/07 09:37:22;;;;;;;4.35;3.15;;;;;;;;;;10597475;27;20050;-81
2023/05/07 09:42:26;;;;;;;3.95;3.00;;;;;;;;;;10599772;27;20499;-81
2023/05/07 09:47:33;;;;;;;4.03;2.75;;;;;;;;;;10598530;27;20476;-81
2023/05/07 09:52:39;;;;;;;3.88;3.25;;;;;;;;;;10587451;27;20162;-81
2023/05/07 09:58:02;;;;;;;2.97;2.40;;;;;;;;;;10598130;27;20423;-81
2023/05/07 10:03:26;;;;;;;4.45;3.10;;;;;;;;;;10595014;27;20047;-78
2023/05/07 10:08:52;;;;;;;3.38;2.78;;;;;;;;;;10597192;27;20423;-79
2023/05/07 10:14:15;;;;;;;2.78;2.50;;;;;;;;;;10602074;27;20055;-80
2023/05/07 10:19:38;;;;;;;4.60;2.53;;;;;;;;;;10598022;27;20319;-79
2023/05/07 10:25:04;;;;;;;3.58;2.10;;;;;;;;;;10605528;27;20081;-78
2023/05/07 10:30:39;;;;;;;2.50;2.00;;;;;;;;;;10601666;27;20043;-79
2023/05/07 10:36:04;;;;;;;3.13;2.22;;;;;;;;;;10598695;27;20947;-79
2023/05/07 10:41:28;;;;;;;2.28;2.08;;;;;;;;;;10602864;27;20047;-80
2023/05/07 10:47:04;;;;;;;3.63;2.33;;;;;;;;;;10602313;27;20099;-79
2023/05/07 10:52:27;;;;;;;5.28;2.90;;;;;;;;;;10607640;27;20496;-79
2023/05/07 10:57:51;;;;;;;3.60;2.85;;;;;;;;;;10604434;27;20058;-78
2023/05/07 11:03:22;;;;;;;4.05;2.40;;;;;;;;;;10605950;27;20047;-80
2023/05/07 11:08:55;;;;;;;4.55;2.30;;;;;;;;;;10608691;27;20035;-79
2023/05/07 11:14:33;;;;;;;3.35;2.70;;;;;;;;;;10595452;27;20756;-79
2023/05/07 11:19:57;;;;;;;5.53;3.15;;;;;;;;;;10596529;27;20077;-79
2023/05/07 11:25:20;;;;;;;3.47;2.30;;;;;;;;;;10592752;27;20055;-78
2023/05/07 11:30:43;;;;;;;4.35;3.00;;;;;;;;;;10598718;27;20563;-79
2023/05/07 11:36:09;;;;;;;3.13;2.83;;;;;;;;;;10593798;27;20082;-79
2023/05/07 11:41:36;;;;;;;3.33;2.58;;;;;;;;;;10602474;27;20043;-79
2023/05/07 11:46:59;;;;;;;3.60;2.50;;;;;;;;;;10596084;27;20042;-79
2023/05/07 11:52:25;;;;;;;4.43;2.58;;;;;;;;;;10590783;27;20066;-79
2023/05/07 11:57:48;;;;;;;9.30;2.90;;;;;;;;;;10596828;27;20043;-78
2023/05/07 12:03:11;;;;;;;4.47;2.50;;;;;;;;;;10607604;27;20039;-78
2023/05/07 12:08:37;;;;;;;6.55;3.13;;;;;;;;;;10602522;27;20050;-78
2023/05/07 12:14:00;;;;;;;5.32;2.88;;;;;;;;;;10614938;27;20037;-79
2023/05/07 12:19:23;;;;;;;4.90;2.50;;;;;;;;;;10602417;27;20104;-74
2023/05/07 12:24:49;;;;;;;5.57;2.90;;;;;;;;;;10613225;27;20065;-85
2023/05/07 12:30:13;;;;;;;2.60;2.28;;;;;;;;;;10609063;27;20039;-86
2023/05/07 12:35:39;;;;;;;4.95;2.55;;;;;;;;;;10612119;27;20473;-86
2023/05/07 12:41:03;;;;;;;3.53;2.30;;;;;;;;;;10607649;27;20050;-87
2023/05/07 12:46:26;;;;;;;2.58;2.10;;;;;;;;;;10608539;27;20392;-80
2023/05/07 12:51:49;;;;;;;4.32;2.20;;;;;;;;;;10597280;27;20468;-80
2023/05/07 12:57:14;;;;;;;3.05;1.90;;;;;;;;;;10599697;27;20044;-81
2023/05/07 13:02:38;;;;;;;2.17;1.90;;;;;;;;;;10602199;27;20187;-81
2023/05/07 13:08:02;;;;;;;4.75;2.15;;;;;;;;;;10598144;27;20176;-81
2023/05/07 13:13:26;;;;;;;3.45;2.10;;;;;;;;;;10602722;27;20043;-81
2023/05/07 13:18:53;;;;;;;2.10;1.58;;;;;;;;;;10598553;27;20399;-80
2023/05/07 13:24:16;;;;;;;1.85;1.73;;;;;;;;;;10561796;27;20133;-80
2023/05/07 13:29:41;;;;;;;2.30;1.50;;;;;;;;;;10553369;27;20059;-79
2023/05/07 13:35:04;;;;;;;2.33;1.70;;;;;;;;;;10598681;27;20047;-79
2023/05/07 13:40:27;;;;;;;2.22;1.95;;;;;;;;;;10604353;27;20074;-80
2023/05/07 13:45:52;;;;;;;2.10;1.90;;;;;;;;;;10599874;27;20085;-79
2023/05/07 13:51:16;;;;;;;2.60;2.00;;;;;;;;;;10601171;27;20412;-79
2023/05/07 13:56:40;;;;;;;1.88;1.70;;;;;;;;;;10594295;27;20062;-80
2023/05/07 14:02:04;;;;;;;3.08;1.83;;;;;;;;;;10595693;27;20046;-80
2023/05/07 14:07:28;;;;;;;3.30;1.80;;;;;;;;;;10599081;27;20035;-80
2023/05/07 14:12:52;;;;;;;3.42;2.13;;;;;;;;;;10594535;27;20053;-80
2023/05/07 14:18:16;;;;;;;2.70;1.70;;;;;;;;;;10594377;27;20086;-80
2023/05/07 14:23:39;;;;;;;4.47;2.40;;;;;;;;;;10591378;27;20050;-80
2023/05/07 14:29:03;;;;;;;3.47;2.30;;;;;;;;;;10605548;27;20559;-80
2023/05/07 14:34:27;;;;;;;5.55;2.83;;;;;;;;;;10596885;27;20365;-79
2023/05/07 14:39:50;;;;;;;3.80;2.17;;;;;;;;;;10605740;27;20508;-81
2023/05/07 14:45:13;;;;;;;4.72;2.38;;;;;;;;;;10600956;27;20509;-81
2023/05/07 14:50:37;;;;;;;3.13;1.90;;;;;;;;;;10589822;27;20633;-81
2023/05/07 14:56:01;;;;;;;3.35;2.58;;;;;;;;;;10596884;27;20088;-80
2023/05/07 15:01:26;;;;;;;3.55;2.60;;;;;;;;;;10598487;27;20048;-81
2023/05/07 15:06:50;;;;;;;3.42;2.60;;;;;;;;;;10597444;27;20043;-79
2023/05/07 15:12:14;;;;;;;4.28;2.70;;;;;;;;;;10596939;27;20043;-80
2023/05/07 15:17:37;;;;;;;4.97;2.35;;;;;;;;;;10596909;27;20451;-80
2023/05/07 15:23:02;;;;;;;3.28;2.08;;;;;;;;;;10599864;27;20047;-80
2023/05/07 15:28:25;;;;;;;2.90;2.40;;;;;;;;;;10600835;27;20043;-79
2023/05/07 15:33:48;;;;;;;3.78;2.40;;;;;;;;;;10606176;27;20127;-80
2023/05/07 15:39:13;;;;;;;3.45;2.03;;;;;;;;;;10606123;27;20169;-80
2023/05/07 15:44:36;;;;;;;3.35;2.50;;;;;;;;;;10607104;27;20035;-80
2023/05/07 15:50:00;;;;;;;3.15;2.05;;;;;;;;;;10608939;27;20046;-80
2023/05/07 15:55:24;;;;;;;2.88;2.05;;;;;;;;;;10611401;27;20035;-80
2023/05/07 16:00:47;;;;;;;4.47;1.90;;;;;;;;;;10603306;27;20047;-80
2023/05/07 16:06:11;;;;;;;4.15;1.95;;;;;;;;;;10598788;27;20063;-80
2023/05/07 16:11:35;;;;;;;2.55;1.70;;;;;;;;;;10595894;27;20039;-80
2023/05/07 16:16:58;;;;;;;4.40;2.28;;;;;;;;;;10597988;27;20043;-79
2023/05/07 16:22:23;;;;;;;3.22;1.70;;;;;;;;;;10611768;27;20107;-80
2023/05/07 16:27:48;;;;;;;2.97;2.05;;;;;;;;;;10612072;27;20491;-80
2023/05/07 16:33:11;;;;;;;3.42;1.88;;;;;;;;;;10613295;27;20047;-79
2023/05/07 16:38:34;;;;;;;3.28;1.70;;;;;;;;;;10616145;27;20389;-80
2023/05/07 16:43:59;;;;;;;3.95;1.80;;;;;;;;;;10617333;27;20039;-78
2023/05/07 16:49:22;;;;;;;2.45;1.75;;;;;;;;;;10618736;27;20062;-79
2023/05/07 16:54:46;;;;;;;2.70;1.80;;;;;;;;;;10619931;27;20432;-80
2023/05/07 17:00:11;;;;;;;4.22;1.83;;;;;;;;;;10619635;27;20054;-78
2023/05/07 17:05:34;;;;;;;3.25;1.83;;;;;;;;;;10605419;27;20051;-80
2023/05/07 17:10:57;;;;;;;3.72;1.88;;;;;;;;;;10611856;27;20039;-82
2023/05/07 17:16:21;;;;;;;2.70;1.77;;;;;;;;;;10607488;27;20078;-82
2023/05/07 17:21:44;;;;;;;4.85;2.13;;;;;;;;;;10600065;27;20417;-80
2023/05/07 17:32:42;;;;;;;3.45;1.98;;;;;;;;;;11418727;23;20057;-75
2023/05/07 17:38:05;;;;;;;3.97;1.70;;;;;;;;;;10335465;28;20064;-75
2023/05/07 17:43:28;;;;;;;5.20;2.50;;;;;;;;;;10396988;28;20041;-75
2023/05/07 17:48:52;;;;;;;4.45;2.38;;;;;;;;;;10397090;28;20049;-75
2023/05/07 17:54:15;;;;;;;3.13;1.90;;;;;;;;;;10400465;28;20506;-76
2023/05/07 17:59:38;;;;;;;4.47;2.40;;;;;;;;;;10394359;28;20497;-76
2023/05/07 18:05:03;;;;;;;3.88;1.83;;;;;;;;;;10409575;28;20330;-76
2023/05/07 18:10:27;;;;;;;2.65;2.03;;;;;;;;;;10407527;28;20441;-76
2023/05/07 18:15:50;;;;;;;5.95;2.08;;;;;;;;;;10396968;28;20033;-76
2023/05/07 18:21:17;;;;;;;4.68;1.80;;;;;;;;;;10394281;28;20049;-76
2023/05/07 18:26:40;;;;;;;2.35;1.75;;;;;;;;;;10392671;28;20034;-76
2023/05/07 18:32:03;;;;;;;4.40;2.50;;;;;;;;;;10392056;28;20057;-76
2023/05/07 18:37:28;;;;;;;4.27;2.10;;;;;;;;;;10396413;28;20045;-76
2023/05/07 18:42:51;;;;;;;4.22;1.90;;;;;;;;;;10383495;28;20300;-75
2023/05/07 18:48:15;;;;;;;4.23;2.13;;;;;;;;;;10378549;28;20049;-77
2023/05/07 18:53:19;;;;;;;5.80;2.50;;;;;;;;;;10391976;28;20037;-76
2023/05/07 18:58:22;;;;;;;5.78;2.40;;;;;;;;;;10382571;28;20501;-75
2023/05/07 19:03:25;;;;;;;3.65;2.17;;;;;;;;;;10387070;28;20113;-76
2023/05/07 19:08:29;;;;;;;5.55;2.67;;;;;;;;;;10390286;28;20095;-80
2023/05/07 19:13:33;;;;;;;4.47;2.38;;;;;;;;;;10386240;28;20049;-77
2023/05/07 19:18:36;;;;;;;4.32;2.60;;;;;;;;;;10391114;28;20107;-77
2023/05/07 19:23:41;;;;;;;5.75;2.80;;;;;;;;;;10381869;28;20119;-77
2023/05/07 19:28:44;;;;;;;6.40;3.33;;;;;;;;;;10385619;28;20042;-75
2023/05/07 19:33:58;;;;;;;7.60;3.25;;;;;;;;;;10389624;28;20139;-77
2023/05/07 19:39:02;;;;;;;8.40;3.70;;;;;;;;;;10389382;28;20033;-76
2023/05/07 19:44:05;;;;;;;6.85;3.60;;;;;;;;;;10392462;28;20140;-78
2023/05/07 19:49:08;;;;;;;9.90;3.97;;;;;;;;;;10390315;28;20120;-77
2023/05/07 19:54:15;;;;;;;14.00;6.30;;;;;;;;;;10385583;28;20042;-77
2023/05/07 19:59:18;;;;;;;13.55;5.80;;;;;;;;;;10390508;28;20053;-77
2023/05/07 20:04:21;;;;;;;10.07;4.27;;;;;;;;;;10396925;28;20049;-77
2023/05/07 20:09:25;;;;;;;8.52;4.20;;;;;;;;;;10397057;28;20046;-77
2023/05/07 20:14:27;;;;;;;8.55;4.25;;;;;;;;;;10395141;28;20048;-77
2023/05/07 20:19:30;;;;;;;7.63;4.47;;;;;;;;;;10411135;28;20052;-78
2023/05/07 20:24:38;;;;;;;8.35;4.40;;;;;;;;;;10405218;28;20576;-76
2023/05/07 20:29:41;;;;;;;8.27;4.43;;;;;;;;;;10393672;28;20348;-76
2023/05/07 20:34:44;;;;;;;8.57;4.43;;;;;;;;;;10394897;28;20068;-76
2023/05/07 20:39:48;;;;;;;5.93;3.70;;;;;;;;;;10391321;28;20145;-76
2023/05/07 20:44:51;;;;;;;6.45;3.97;;;;;;;;;;10392615;28;20048;-76
2023/05/07 20:49:54;;;;;;;8.57;3.97;;;;;;;;;;10394752;28;21830;-77
2023/05/07 20:54:58;;;;;;;7.57;3.50;;;;;;;;;;10390634;28;20049;-77
2023/05/07 21:00:00;;;;;;;10.65;4.82;;;;;;;;;;10405693;28;20041;-75
2023/05/07 21:05:03;;;;;;;7.10;4.10;;;;;;;;;;10389809;28;20070;-76
2023/05/07 21:10:08;;;;;;;9.00;4.77;;;;;;;;;;10386063;28;20029;-77
2023/05/07 21:15:11;;;;;;;8.38;4.97;;;;;;;;;;10390186;28;20126;-77
2023/05/07 21:20:14;;;;;;;7.72;4.38;;;;;;;;;;10399260;28;20405;-76
2023/05/07 21:25:19;;;;;;;7.65;4.18;;;;;;;;;;10396077;28;20049;-76
2023/05/07 21:30:22;;;;;;;10.43;5.63;;;;;;;;;;10397717;28;20048;-75
2023/05/07 21:35:24;;;;;;;7.43;4.30;;;;;;;;;;10396585;28;20052;-77
2023/05/07 21:40:29;;;;;;;10.27;5.27;;;;;;;;;;10394739;28;20037;-76
2023/05/07 21:45:32;;;;;;;9.27;4.85;;;;;;;;;;10393353;28;20123;-75
2023/05/07 21:50:35;;;;;;;8.13;4.38;;;;;;;;;;10395233;28;20069;-75
2023/05/07 21:55:39;;;;;;;10.00;4.68;;;;;;;;;;10394070;28;20136;-76
2023/05/07 22:00:42;;;;;;;9.95;5.05;;;;;;;;;;10399532;28;20038;-75
2023/05/07 22:05:45;;;;;;;9.70;5.20;;;;;;;;;;10395102;28;20046;-75
2023/05/07 22:10:52;;;;;;;9.15;4.78;;;;;;;;;;10395267;28;20481;-74
2023/05/07 22:15:55;;;;;;;11.43;5.45;;;;;;;;;;10396551;28;20049;-76
2023/05/07 22:20:59;;;;;;;10.07;5.28;;;;;;;;;;10405231;28;20055;-78
2023/05/07 22:26:09;;;;;;;8.85;4.85;;;;;;;;;;10398840;28;20068;-76
2023/05/07 22:31:12;;;;;;;9.82;5.00;;;;;;;;;;10396991;28;20053;-76
2023/05/07 22:36:15;;;;;;;9.27;4.77;;;;;;;;;;10395415;28;20126;-76
2023/05/07 22:41:19;;;;;;;10.23;4.88;;;;;;;;;;10399719;28;20045;-78
2023/05/07 22:46:22;;;;;;;11.50;4.75;;;;;;;;;;10399189;28;20054;-77
2023/05/07 22:51:26;;;;;;;10.30;4.65;;;;;;;;;;10400505;28;20049;-75
2023/05/07 22:56:30;;;;;;;11.18;5.00;;;;;;;;;;10399360;28;20041;-76
2023/05/07 23:01:33;;;;;;;10.73;5.00;;;;;;;;;;10396623;28;20103;-75
2023/05/07 23:06:36;;;;;;;9.27;5.15;;;;;;;;;;10397048;28;20041;-75
2023/05/07 23:11:41;;;;;;;10.02;4.78;;;;;;;;;;10395863;28;20041;-76
2023/05/07 23:16:45;;;;;;;12.20;5.35;;;;;;;;;;10397175;28;20049;-75
2023/05/07 23:21:48;;;;;;;12.75;5.47;;;;;;;;;;10394809;28;20469;-76
2023/05/07 23:26:52;;;;;;;13.00;5.63;;;;;;;;;;10394812;28;20080;-76
2023/05/07 23:31:55;;;;;;;11.02;5.13;;;;;;;;;;10390201;28;20319;-77
2023/05/07 23:36:57;;;;;;;10.77;5.40;;;;;;;;;;10396390;28;20570;-76
2023/05/07 23:42:01;;;;;;;11.05;5.40;;;;;;;;;;10393336;28;20057;-76
2023/05/07 23:47:04;;;;;;;11.40;5.28;;;;;;;;;;10397797;28;20111;-75
2023/05/07 23:52:07;;;;;;;11.90;4.97;;;;;;;;;;10396156;28;20429;-75
2023/05/07 23:57:11;;;;;;;13.73;5.40;;;;;;;;;;10401734;28;20490;-76
